Kerrick, TX (79051)

4:20 AM CDT on July 25, 2016 (GMT -0500)
McDaniel Farm | | Change Station

Elev 3957 ft 36.46 °N, 102.32 °W | Updated 21 seconds ago

Partly Cloudy
Partly Cloudy
67.1 °F
Feels Like 67.1 °F
N
0.0
Wind Variable Wind from SSE
Gusts 0.0 mph

Today
High -- | Low -- °F
--% Chance of Precip.
Yesterday
High -- | Low -- °F
Precip. -- in
Pressure 29.98 in
Visibility 10.0 miles
Clouds Few 5500 ft
Dew Point 43 °F
Humidity 42%
Rainfall 0.00 in
Snow Depth Not available.
6:50 AM 9:00 PM
Waning Gibbous, 68% visible
METAR KDHT 250853Z AUTO 04008KT 10SM FEW055 21/17 A3019 RMK AO2 RAB33E42 SLP152 P0000 60000 T02110172 53012
Pressure 29.98 in
Visibility 10.0 miles
Clouds Few 5500 ft
Dew Point 43 °F
Humidity 42%
Rainfall 0.00 in
Snow Depth Not available.
6:50 AM 9:00 PM
Waning Gibbous, 68% visible
METAR KDHT 250853Z AUTO 04008KT 10SM FEW055 21/17 A3019 RMK AO2 RAB33E42 SLP152 P0000 60000 T02110172 53012

10-Day Weather Forecast

Almanac

Astronomy

Jul. 25, 2016 Rise Set
Actual Time
Civil Twilight
Nautical Twilight
Astronomical Twilight
Moon
Length of Visible Light
Length of Day
Tomorrow will be .
, % of the Moon is Illuminated

Today's Extremes

State Highs State Lows

Community

WunderPhotos

Upload Photos

1,927,278 photos uploaded!

WunderBlog® & News

Nearby

Air Quality

  Air Quality AQ Index Pollutant
Not available.

Snow Depth

Station Depth Elevation

Earthquake Activity

City Distance Mag. Time & Date
Minimum magnitude displayed is 2.5.

Coastal Water Temperatures

Place Temperature

Stations

Nearby Weather Stations

Station Location Temp. Windchill Dew Point Humidity Wind Precip. Elev Updated Type
                   

Watches & Warnings

There are currently no watches in effect.